sensor_id;sensor_type;location;lat;lon;timestamp;pressure;altitude;pressure_sealevel;temperature;humidity
23303;BME280;11820;48.738;9.092;2023-05-23T00:01:11;96130.19;;;18.03;100.00
23303;BME280;11820;48.738;9.092;2023-05-23T00:03:39;96132.53;;;18.00;100.00
23303;BME280;11820;48.738;9.092;2023-05-23T00:06:05;96129.03;;;17.95;100.00
23303;BME280;11820;48.738;9.092;2023-05-23T00:08:31;96123.44;;;17.86;100.00
23303;BME280;11820;48.738;9.092;2023-05-23T00:10:56;96131.06;;;18.09;100.00
23303;BME280;11820;48.738;9.092;2023-05-23T00:13:22;96136.56;;;17.91;100.00
23303;BME280;11820;48.738;9.092;2023-05-23T00:15:47;96127.28;;;18.00;100.00
23303;BME280;11820;48.738;9.092;2023-05-23T00:18:12;96126.91;;;18.13;100.00
23303;BME280;11820;48.738;9.092;2023-05-23T00:20:40;96132.97;;;18.13;100.00
23303;BME280;11820;48.738;9.092;2023-05-23T00:23:07;96132.25;;;18.01;100.00
23303;BME280;11820;48.738;9.092;2023-05-23T00:25:34;96129.22;;;18.09;100.00
23303;BME280;11820;48.738;9.092;2023-05-23T00:28:00;96122.41;;;18.08;100.00
23303;BME280;11820;48.738;9.092;2023-05-23T00:30:29;96123.75;;;18.11;100.00
23303;BME280;11820;48.738;9.092;2023-05-23T00:32:55;96126.00;;;18.02;100.00
23303;BME280;11820;48.738;9.092;2023-05-23T00:35:20;96124.47;;;17.85;100.00
23303;BME280;11820;48.738;9.092;2023-05-23T00:37:46;96123.50;;;17.91;100.00
23303;BME280;11820;48.738;9.092;2023-05-23T00:40:12;96130.38;;;17.97;100.00
23303;BME280;11820;48.738;9.092;2023-05-23T00:42:37;96133.97;;;17.91;100.00
23303;BME280;11820;48.738;9.092;2023-05-23T00:45:03;96130.63;;;17.96;100.00
23303;BME280;11820;48.738;9.092;2023-05-23T00:47:29;96136.16;;;17.99;100.00
23303;BME280;11820;48.738;9.092;2023-05-23T00:49:55;96140.59;;;17.98;100.00
23303;BME280;11820;48.738;9.092;2023-05-23T00:52:20;96141.16;;;18.00;100.00
23303;BME280;11820;48.738;9.092;2023-05-23T00:54:46;96150.97;;;18.10;100.00
23303;BME280;11820;48.738;9.092;2023-05-23T00:57:11;96148.13;;;17.95;100.00
23303;BME280;11820;48.738;9.092;2023-05-23T00:59:36;96157.66;;;18.01;100.00
23303;BME280;11820;48.738;9.092;2023-05-23T01:02:03;96151.25;;;17.92;100.00
23303;BME280;11820;48.738;9.092;2023-05-23T01:04:28;96139.78;;;17.98;100.00
23303;BME280;11820;48.738;9.092;2023-05-23T01:06:54;96153.84;;;17.92;100.00
23303;BME280;11820;48.738;9.092;2023-05-23T01:09:21;96152.09;;;17.76;100.00
23303;BME280;11820;48.738;9.092;2023-05-23T01:11:58;96156.47;;;17.92;100.00
23303;BME280;11820;48.738;9.092;2023-05-23T01:14:55;96160.28;;;18.01;100.00
23303;BME280;11820;48.738;9.092;2023-05-23T01:17:57;96162.63;;;18.02;100.00
23303;BME280;11820;48.738;9.092;2023-05-23T01:20:30;96157.47;;;18.07;100.00
23303;BME280;11820;48.738;9.092;2023-05-23T01:27:56;96155.06;;;17.85;100.00
23303;BME280;11820;48.738;9.092;2023-05-23T01:30:23;96148.88;;;17.91;100.00
23303;BME280;11820;48.738;9.092;2023-05-23T01:32:52;96161.22;;;17.95;100.00
23303;BME280;11820;48.738;9.092;2023-05-23T01:35:26;96160.38;;;17.90;100.00
23303;BME280;11820;48.738;9.092;2023-05-23T01:37:54;96154.28;;;17.84;100.00
23303;BME280;11820;48.738;9.092;2023-05-23T01:40:20;96160.13;;;17.91;100.00
23303;BME280;11820;48.738;9.092;2023-05-23T01:42:46;96158.53;;;17.90;100.00
23303;BME280;11820;48.738;9.092;2023-05-23T01:45:12;96155.38;;;17.88;100.00
23303;BME280;11820;48.738;9.092;2023-05-23T01:47:39;96163.41;;;17.65;100.00
23303;BME280;11820;48.738;9.092;2023-05-23T01:50:06;96159.59;;;17.73;100.00
23303;BME280;11820;48.738;9.092;2023-05-23T01:52:32;96160.16;;;17.75;100.00
23303;BME280;11820;48.738;9.092;2023-05-23T01:54:58;96160.38;;;17.73;100.00
23303;BME280;11820;48.738;9.092;2023-05-23T01:57:25;96157.88;;;17.78;100.00
23303;BME280;11820;48.738;9.092;2023-05-23T01:59:53;96164.63;;;17.74;100.00
23303;BME280;11820;48.738;9.092;2023-05-23T02:02:18;96156.41;;;17.87;100.00
23303;BME280;11820;48.738;9.092;2023-05-23T02:04:43;96156.53;;;17.59;100.00
23303;BME280;11820;48.738;9.092;2023-05-23T02:07:09;96158.75;;;17.51;100.00
23303;BME280;11820;48.738;9.092;2023-05-23T02:09:34;96157.63;;;17.63;100.00
23303;BME280;11820;48.738;9.092;2023-05-23T02:12:00;96153.97;;;17.64;100.00
23303;BME280;11820;48.738;9.092;2023-05-23T02:14:25;96162.38;;;17.66;100.00
23303;BME280;11820;48.738;9.092;2023-05-23T02:16:52;96158.81;;;17.56;100.00
23303;BME280;11820;48.738;9.092;2023-05-23T02:19:18;96156.03;;;17.62;100.00
23303;BME280;11820;48.738;9.092;2023-05-23T02:21:43;96156.13;;;17.67;100.00
23303;BME280;11820;48.738;9.092;2023-05-23T02:24:08;96155.56;;;17.65;100.00
23303;BME280;11820;48.738;9.092;2023-05-23T02:26:34;96155.56;;;17.65;100.00
23303;BME280;11820;48.738;9.092;2023-05-23T02:29:00;96155.41;;;17.72;100.00
23303;BME280;11820;48.738;9.092;2023-05-23T02:31:26;96151.03;;;17.77;100.00
23303;BME280;11820;48.738;9.092;2023-05-23T02:33:52;96158.09;;;17.77;100.00
23303;BME280;11820;48.738;9.092;2023-05-23T02:36:17;96157.31;;;17.76;100.00
23303;BME280;11820;48.738;9.092;2023-05-23T02:38:43;96155.09;;;17.68;100.00
23303;BME280;11820;48.738;9.092;2023-05-23T02:41:08;96160.88;;;17.70;100.00
23303;BME280;11820;48.738;9.092;2023-05-23T02:43:33;96164.44;;;17.64;100.00
23303;BME280;11820;48.738;9.092;2023-05-23T02:45:59;96166.03;;;17.65;100.00
23303;BME280;11820;48.738;9.092;2023-05-23T02:48:24;96162.72;;;17.53;100.00
23303;BME280;11820;48.738;9.092;2023-05-23T02:50:50;96165.31;;;17.70;100.00
23303;BME280;11820;48.738;9.092;2023-05-23T02:53:15;96171.31;;;17.70;100.00
23303;BME280;11820;48.738;9.092;2023-05-23T02:55:40;96171.41;;;17.42;100.00
23303;BME280;11820;48.738;9.092;2023-05-23T02:58:07;96174.59;;;17.61;100.00
23303;BME280;11820;48.738;9.092;2023-05-23T03:00:33;96169.53;;;17.54;100.00
23303;BME280;11820;48.738;9.092;2023-05-23T03:02:58;96182.44;;;17.44;100.00
23303;BME280;11820;48.738;9.092;2023-05-23T03:05:23;96179.19;;;17.70;100.00
23303;BME280;11820;48.738;9.092;2023-05-23T03:07:49;96181.66;;;17.60;100.00
23303;BME280;11820;48.738;9.092;2023-05-23T03:10:16;96184.91;;;17.34;100.00
23303;BME280;11820;48.738;9.092;2023-05-23T03:12:41;96171.97;;;17.44;100.00
23303;BME280;11820;48.738;9.092;2023-05-23T03:15:08;96175.00;;;17.53;100.00
23303;BME280;11820;48.738;9.092;2023-05-23T03:17:34;96169.53;;;17.54;100.00
23303;BME280;11820;48.738;9.092;2023-05-23T03:19:59;96176.56;;;17.70;100.00
23303;BME280;11820;48.738;9.092;2023-05-23T03:22:24;96181.09;;;17.75;100.00
23303;BME280;11820;48.738;9.092;2023-05-23T03:24:50;96187.50;;;17.67;100.00
23303;BME280;11820;48.738;9.092;2023-05-23T03:27:15;96190.13;;;17.51;100.00
23303;BME280;11820;48.738;9.092;2023-05-23T03:29:40;96194.88;;;17.54;100.00
23303;BME280;11820;48.738;9.092;2023-05-23T03:32:05;96184.19;;;17.55;100.00
23303;BME280;11820;48.738;9.092;2023-05-23T03:34:31;96195.13;;;17.52;100.00
23303;BME280;11820;48.738;9.092;2023-05-23T03:36:58;96192.19;;;17.49;100.00
23303;BME280;11820;48.738;9.092;2023-05-23T03:39:23;96200.91;;;17.38;100.00
23303;BME280;11820;48.738;9.092;2023-05-23T03:41:49;96193.00;;;17.49;100.00
23303;BME280;11820;48.738;9.092;2023-05-23T03:44:15;96198.94;;;17.61;100.00
23303;BME280;11820;48.738;9.092;2023-05-23T03:46:40;96190.94;;;17.51;100.00
23303;BME280;11820;48.738;9.092;2023-05-23T03:49:05;96191.88;;;17.62;100.00
23303;BME280;11820;48.738;9.092;2023-05-23T03:51:31;96188.47;;;17.61;100.00
23303;BME280;11820;48.738;9.092;2023-05-23T03:53:56;96196.09;;;17.63;100.00
23303;BME280;11820;48.738;9.092;2023-05-23T03:56:21;96190.38;;;17.66;100.00
23303;BME280;11820;48.738;9.092;2023-05-23T03:58:47;96191.16;;;17.66;100.00
23303;BME280;11820;48.738;9.092;2023-05-23T04:01:12;96192.81;;;17.72;100.00
23303;BME280;11820;48.738;9.092;2023-05-23T04:03:38;96186.75;;;17.50;100.00
23303;BME280;11820;48.738;9.092;2023-05-23T04:06:03;96183.09;;;17.51;100.00
23303;BME280;11820;48.738;9.092;2023-05-23T04:08:29;96190.94;;;17.51;100.00
23303;BME280;11820;48.738;9.092;2023-05-23T04:10:58;96193.78;;;17.33;100.00
23303;BME280;11820;48.738;9.092;2023-05-23T04:13:23;96190.94;;;17.68;100.00
23303;BME280;11820;48.738;9.092;2023-05-23T04:15:50;96195.34;;;17.51;100.00
23303;BME280;11820;48.738;9.092;2023-05-23T04:18:16;96203.19;;;17.67;100.00
23303;BME280;11820;48.738;9.092;2023-05-23T04:20:42;96193.56;;;17.51;100.00
23303;BME280;11820;48.738;9.092;2023-05-23T04:23:07;96196.31;;;17.45;100.00
23303;BME280;11820;48.738;9.092;2023-05-23T04:25:32;96196.09;;;17.63;100.00
23303;BME280;11820;48.738;9.092;2023-05-23T04:27:58;96196.63;;;17.48;100.00
23303;BME280;11820;48.738;9.092;2023-05-23T04:30:25;96199.34;;;17.53;100.00
23303;BME280;11820;48.738;9.092;2023-05-23T04:32:50;96203.59;;;17.43;100.00
23303;BME280;11820;48.738;9.092;2023-05-23T04:35:16;96201.47;;;17.56;100.00
23303;BME280;11820;48.738;9.092;2023-05-23T04:37:41;96204.22;;;17.66;100.00
23303;BME280;11820;48.738;9.092;2023-05-23T04:40:07;96202.97;;;17.69;100.00
23303;BME280;11820;48.738;9.092;2023-05-23T04:42:33;96212.22;;;17.60;100.00
23303;BME280;11820;48.738;9.092;2023-05-23T04:44:58;96211.84;;;17.51;100.00
23303;BME280;11820;48.738;9.092;2023-05-23T04:47:23;96214.69;;;17.50;100.00
23303;BME280;11820;48.738;9.092;2023-05-23T04:49:52;96216.13;;;17.57;100.00
23303;BME280;11820;48.738;9.092;2023-05-23T04:52:18;96226.09;;;17.77;100.00
23303;BME280;11820;48.738;9.092;2023-05-23T04:54:44;96216.69;;;17.76;100.00
23303;BME280;11820;48.738;9.092;2023-05-23T04:57:11;96225.41;;;17.81;100.00
23303;BME280;11820;48.738;9.092;2023-05-23T04:59:36;96224.66;;;17.86;100.00
23303;BME280;11820;48.738;9.092;2023-05-23T05:02:02;96229.81;;;17.97;100.00
23303;BME280;11820;48.738;9.092;2023-05-23T05:04:27;96230.69;;;17.86;100.00
23303;BME280;11820;48.738;9.092;2023-05-23T05:06:52;96225.00;;;17.73;100.00
23303;BME280;11820;48.738;9.092;2023-05-23T05:09:18;96229.75;;;17.76;100.00
23303;BME280;11820;48.738;9.092;2023-05-23T05:11:43;96236.50;;;17.88;100.00
23303;BME280;11820;48.738;9.092;2023-05-23T05:14:08;96222.53;;;17.83;100.00
23303;BME280;11820;48.738;9.092;2023-05-23T05:16:34;96231.19;;;17.83;100.00
23303;BME280;11820;48.738;9.092;2023-05-23T05:19:00;96223.88;;;17.85;100.00
23303;BME280;11820;48.738;9.092;2023-05-23T05:21:25;96235.59;;;17.83;100.00
23303;BME280;11820;48.738;9.092;2023-05-23T05:23:51;96239.66;;;17.74;100.00
23303;BME280;11820;48.738;9.092;2023-05-23T05:26:16;96243.25;;;17.68;100.00
23303;BME280;11820;48.738;9.092;2023-05-23T05:28:42;96242.63;;;17.77;100.00
23303;BME280;11820;48.738;9.092;2023-05-23T05:31:07;96248.41;;;17.63;100.00
23303;BME280;11820;48.738;9.092;2023-05-23T05:33:34;96243.72;;;17.65;100.00
23303;BME280;11820;48.738;9.092;2023-05-23T05:36:05;96241.25;;;17.58;100.00
23303;BME280;11820;48.738;9.092;2023-05-23T05:38:30;96246.41;;;17.53;100.00
23303;BME280;11820;48.738;9.092;2023-05-23T05:40:57;96246.69;;;17.40;100.00
23303;BME280;11820;48.738;9.092;2023-05-23T05:43:22;96244.97;;;17.62;100.00
23303;BME280;11820;48.738;9.092;2023-05-23T05:45:48;96242.63;;;17.77;100.00
23303;BME280;11820;48.738;9.092;2023-05-23T05:48:13;96254.72;;;17.67;100.00
23303;BME280;11820;48.738;9.092;2023-05-23T05:50:38;96242.53;;;17.89;100.00
23303;BME280;11820;48.738;9.092;2023-05-23T05:53:04;96249.72;;;17.98;100.00
23303;BME280;11820;48.738;9.092;2023-05-23T05:55:29;96248.31;;;17.91;100.00
23303;BME280;11820;48.738;9.092;2023-05-23T05:57:54;96252.81;;;17.95;100.00
23303;BME280;11820;48.738;9.092;2023-05-23T06:00:20;96247.84;;;17.77;100.00
23303;BME280;11820;48.738;9.092;2023-05-23T06:02:46;96246.41;;;17.86;100.00
23303;BME280;11820;48.738;9.092;2023-05-23T06:05:13;96254.00;;;18.04;100.00
23303;BME280;11820;48.738;9.092;2023-05-23T06:07:41;96250.28;;;18.00;100.00
23303;BME280;11820;48.738;9.092;2023-05-23T06:10:07;96252.88;;;18.16;100.00
23303;BME280;11820;48.738;9.092;2023-05-23T06:12:34;96253.00;;;17.89;100.00
23303;BME280;11820;48.738;9.092;2023-05-23T06:14:59;96264.09;;;17.79;100.00
23303;BME280;11820;48.738;9.092;2023-05-23T06:17:25;96262.09;;;17.53;100.00
23303;BME280;11820;48.738;9.092;2023-05-23T06:19:50;96264.09;;;17.63;100.00
23303;BME280;11820;48.738;9.092;2023-05-23T06:22:15;96255.91;;;17.92;100.00
23303;BME280;11820;48.738;9.092;2023-05-23T06:24:41;96250.50;;;18.15;100.00
23303;BME280;11820;48.738;9.092;2023-05-23T06:27:06;96263.06;;;17.97;100.00
23303;BME280;11820;48.738;9.092;2023-05-23T06:29:31;96255.91;;;17.76;100.00
23303;BME280;11820;48.738;9.092;2023-05-23T06:31:56;96261.47;;;17.96;100.00
23303;BME280;11820;48.738;9.092;2023-05-23T06:34:22;96258.50;;;18.08;100.00
23303;BME280;11820;48.738;9.092;2023-05-23T06:36:47;96266.53;;;17.86;100.00
23303;BME280;11820;48.738;9.092;2023-05-23T06:39:13;96264.50;;;17.88;100.00
23303;BME280;11820;48.738;9.092;2023-05-23T06:41:38;96270.56;;;18.09;100.00
23303;BME280;11820;48.738;9.092;2023-05-23T06:44:04;96276.06;;;18.08;100.00
23303;BME280;11820;48.738;9.092;2023-05-23T06:46:29;96281.94;;;17.98;100.00
23303;BME280;11820;48.738;9.092;2023-05-23T06:48:55;96279.53;;;17.97;100.00
23303;BME280;11820;48.738;9.092;2023-05-23T06:51:20;96292.25;;;18.05;100.00
23303;BME280;11820;48.738;9.092;2023-05-23T06:53:45;96293.19;;;18.15;100.00
23303;BME280;11820;48.738;9.092;2023-05-23T06:56:11;96297.22;;;18.06;100.00
23303;BME280;11820;48.738;9.092;2023-05-23T06:58:36;96301.06;;;17.55;100.00
23303;BME280;11820;48.738;9.092;2023-05-23T07:01:01;96301.00;;;17.66;100.00
23303;BME280;11820;48.738;9.092;2023-05-23T07:03:27;96297.63;;;17.82;100.00
23303;BME280;11820;48.738;9.092;2023-05-23T07:05:52;96301.75;;;17.62;100.00
23303;BME280;11820;48.738;9.092;2023-05-23T07:08:17;96314.56;;;17.63;100.00
23303;BME280;11820;48.738;9.092;2023-05-23T07:10:43;96305.19;;;17.51;100.00
23303;BME280;11820;48.738;9.092;2023-05-23T07:13:08;96312.81;;;17.52;100.00
23303;BME280;11820;48.738;9.092;2023-05-23T07:15:33;96327.66;;;17.35;100.00
23303;BME280;11820;48.738;9.092;2023-05-23T07:17:59;96319.91;;;17.01;100.00
23303;BME280;11820;48.738;9.092;2023-05-23T07:20:24;96329.03;;;17.26;100.00
23303;BME280;11820;48.738;9.092;2023-05-23T07:22:49;96323.56;;;17.56;100.00
23303;BME280;11820;48.738;9.092;2023-05-23T07:25:16;96326.59;;;17.08;100.00
23303;BME280;11820;48.738;9.092;2023-05-23T07:27:41;96327.44;;;17.25;100.00
23303;BME280;11820;48.738;9.092;2023-05-23T07:30:07;96342.38;;;17.02;100.00
23303;BME280;11820;48.738;9.092;2023-05-23T07:32:34;96335.16;;;16.81;100.00
23303;BME280;11820;48.738;9.092;2023-05-23T07:34:59;96328.09;;;17.04;100.00
23303;BME280;11820;48.738;9.092;2023-05-23T07:37:25;96340.38;;;16.81;100.00
23303;BME280;11820;48.738;9.092;2023-05-23T07:39:52;96342.44;;;16.79;100.00
23303;BME280;11820;48.738;9.092;2023-05-23T07:42:17;96337.34;;;16.72;100.00
23303;BME280;11820;48.738;9.092;2023-05-23T07:44:42;96344.03;;;16.68;100.00
23303;BME280;11820;48.738;9.092;2023-05-23T07:47:08;96346.31;;;16.65;100.00
23303;BME280;11820;48.738;9.092;2023-05-23T07:49:33;96342.59;;;16.49;100.00
23303;BME280;11820;48.738;9.092;2023-05-23T07:52:00;96344.47;;;16.77;100.00
23303;BME280;11820;48.738;9.092;2023-05-23T07:54:25;96340.97;;;16.71;100.00
23303;BME280;11820;48.738;9.092;2023-05-23T07:56:52;96347.91;;;16.54;100.00
23303;BME280;11820;48.738;9.092;2023-05-23T07:59:17;96347.34;;;16.75;100.00
23303;BME280;11820;48.738;9.092;2023-05-23T08:01:43;96348.38;;;16.74;100.00
23303;BME280;11820;48.738;9.092;2023-05-23T08:04:08;96341.09;;;16.65;100.00
23303;BME280;11820;48.738;9.092;2023-05-23T08:06:34;96355.03;;;16.70;100.00
23303;BME280;11820;48.738;9.092;2023-05-23T08:09:00;96358.25;;;16.72;100.00
23303;BME280;11820;48.738;9.092;2023-05-23T08:11:26;96352.88;;;16.79;100.00
23303;BME280;11820;48.738;9.092;2023-05-23T08:13:53;96357.47;;;17.11;100.00
23303;BME280;11820;48.738;9.092;2023-05-23T08:16:18;96356.75;;;16.76;100.00
23303;BME280;11820;48.738;9.092;2023-05-23T08:18:43;96361.28;;;16.69;100.00
23303;BME280;11820;48.738;9.092;2023-05-23T08:21:09;96361.66;;;16.61;100.00
23303;BME280;11820;48.738;9.092;2023-05-23T08:23:34;96361.28;;;16.58;100.00
23303;BME280;11820;48.738;9.092;2023-05-23T08:25:59;96363.59;;;16.66;100.00
23303;BME280;11820;48.738;9.092;2023-05-23T08:28:25;96363.31;;;16.90;100.00
23303;BME280;11820;48.738;9.092;2023-05-23T08:30:50;96373.19;;;16.88;100.00
23303;BME280;11820;48.738;9.092;2023-05-23T08:33:16;96368.56;;;16.44;100.00
23303;BME280;11820;48.738;9.092;2023-05-23T08:35:41;96378.91;;;16.51;100.00
23303;BME280;11820;48.738;9.092;2023-05-23T08:38:10;96376.63;;;16.54;100.00
23303;BME280;11820;48.738;9.092;2023-05-23T08:40:35;96384.13;;;16.39;100.00
23303;BME280;11820;48.738;9.092;2023-05-23T08:43:01;96378.91;;;16.74;100.00
23303;BME280;11820;48.738;9.092;2023-05-23T08:45:26;96386.38;;;16.70;100.00
23303;BME280;11820;48.738;9.092;2023-05-23T08:47:54;96386.84;;;16.79;100.00
23303;BME280;11820;48.738;9.092;2023-05-23T08:50:20;96389.44;;;16.90;100.00
23303;BME280;11820;48.738;9.092;2023-05-23T08:52:56;96394.44;;;16.92;100.00
23303;BME280;11820;48.738;9.092;2023-05-23T08:55:23;96392.75;;;16.86;100.00
23303;BME280;11820;48.738;9.092;2023-05-23T08:57:51;96396.16;;;16.86;100.00
23303;BME280;11820;48.738;9.092;2023-05-23T09:00:17;96406.03;;;16.73;100.00
23303;BME280;11820;48.738;9.092;2023-05-23T09:02:43;96396.59;;;16.83;100.00
23303;BME280;11820;48.738;9.092;2023-05-23T09:05:09;96401.13;;;17.11;100.00
23303;BME280;11820;48.738;9.092;2023-05-23T09:07:35;96402.22;;;17.38;100.00
23303;BME280;11820;48.738;9.092;2023-05-23T09:10:02;96405.44;;;17.05;100.00
23303;BME280;11820;48.738;9.092;2023-05-23T09:12:29;96404.44;;;16.95;100.00
23303;BME280;11820;48.738;9.092;2023-05-23T09:14:54;96401.06;;;17.22;100.00
23303;BME280;11820;48.738;9.092;2023-05-23T09:17:20;96414.84;;;17.18;100.00
23303;BME280;11820;48.738;9.092;2023-05-23T09:19:46;96417.41;;;17.52;100.00
23303;BME280;11820;48.738;9.092;2023-05-23T09:22:12;96419.25;;;17.40;100.00
23303;BME280;11820;48.738;9.092;2023-05-23T09:24:38;96414.97;;;17.11;100.00
23303;BME280;11820;48.738;9.092;2023-05-23T09:27:07;96419.81;;;17.31;100.00
23303;BME280;11820;48.738;9.092;2023-05-23T09:29:36;96410.06;;;17.38;100.00
23303;BME280;11820;48.738;9.092;2023-05-23T09:32:12;96418.88;;;17.48;100.00
23303;BME280;11820;48.738;9.092;2023-05-23T09:34:43;96416.22;;;17.60;100.00
23303;BME280;11820;48.738;9.092;2023-05-23T09:37:19;96415.94;;;17.84;100.00
23303;BME280;11820;48.738;9.092;2023-05-23T09:39:47;96409.63;;;18.13;100.00
23303;BME280;11820;48.738;9.092;2023-05-23T09:42:19;96412.91;;;18.36;100.00
23303;BME280;11820;48.738;9.092;2023-05-23T09:44:45;96411.44;;;18.40;100.00
23303;BME280;11820;48.738;9.092;2023-05-23T09:47:10;96415.25;;;18.33;100.00
23303;BME280;11820;48.738;9.092;2023-05-23T09:49:38;96420.25;;;18.51;100.00
23303;BME280;11820;48.738;9.092;2023-05-23T09:52:03;96410.69;;;18.78;100.00
23303;BME280;11820;48.738;9.092;2023-05-23T09:54:28;96413.63;;;18.81;100.00
23303;BME280;11820;48.738;9.092;2023-05-23T09:56:58;96412.38;;;18.67;100.00
23303;BME280;11820;48.738;9.092;2023-05-23T09:59:27;96416.50;;;18.47;100.00
23303;BME280;11820;48.738;9.092;2023-05-23T10:01:55;96418.16;;;19.07;100.00
23303;BME280;11820;48.738;9.092;2023-05-23T10:04:21;96412.97;;;19.12;100.00
23303;BME280;11820;48.738;9.092;2023-05-23T10:06:53;96419.53;;;19.10;100.00
23303;BME280;11820;48.738;9.092;2023-05-23T10:09:22;96411.94;;;19.30;100.00
23303;BME280;11820;48.738;9.092;2023-05-23T10:14:36;96417.69;;;19.10;100.00
23303;BME280;11820;48.738;9.092;2023-05-23T10:20:10;96418.97;;;19.08;100.00
23303;BME280;11820;48.738;9.092;2023-05-23T10:22:37;96422.53;;;18.64;100.00
23303;BME280;11820;48.738;9.092;2023-05-23T10:25:03;96416.16;;;18.76;100.00
23303;BME280;11820;48.738;9.092;2023-05-23T10:27:30;96414.56;;;18.92;100.00
23303;BME280;11820;48.738;9.092;2023-05-23T10:29:56;96415.34;;;18.76;100.00
23303;BME280;11820;48.738;9.092;2023-05-23T10:32:22;96419.22;;;19.44;100.00
23303;BME280;11820;48.738;9.092;2023-05-23T10:40:36;96410.50;;;20.13;100.00
23303;BME280;11820;48.738;9.092;2023-05-23T10:43:27;96412.13;;;19.92;100.00
23303;BME280;11820;48.738;9.092;2023-05-23T10:45:53;96410.59;;;19.96;100.00
23303;BME280;11820;48.738;9.092;2023-05-23T10:48:31;96411.00;;;19.83;100.00
23303;BME280;11820;48.738;9.092;2023-05-23T10:51:05;96413.00;;;19.76;100.00
23303;BME280;11820;48.738;9.092;2023-05-23T10:53:33;96413.03;;;19.55;100.00
23303;BME280;11820;48.738;9.092;2023-05-23T10:55:59;96414.75;;;19.45;100.00
23303;BME280;11820;48.738;9.092;2023-05-23T10:58:24;96415.09;;;18.94;100.00
23303;BME280;11820;48.738;9.092;2023-05-23T11:00:54;96409.59;;;19.12;100.00
23303;BME280;11820;48.738;9.092;2023-05-23T11:03:33;96418.00;;;19.14;100.00
23303;BME280;11820;48.738;9.092;2023-05-23T11:06:00;96421.16;;;18.94;100.00
23303;BME280;11820;48.738;9.092;2023-05-23T11:08:26;96424.78;;;19.10;100.00
23303;BME280;11820;48.738;9.092;2023-05-23T11:10:59;96420.28;;;18.89;100.00
23303;BME280;11820;48.738;9.092;2023-05-23T11:16:38;96436.81;;;18.89;100.00
23303;BME280;11820;48.738;9.092;2023-05-23T11:21:51;96439.97;;;18.75;100.00
23303;BME280;11820;48.738;9.092;2023-05-23T11:24:17;96442.19;;;18.33;100.00
23303;BME280;11820;48.738;9.092;2023-05-23T11:26:59;96439.50;;;18.61;100.00
23303;BME280;11820;48.738;9.092;2023-05-23T11:29:28;96439.84;;;18.65;100.00
23303;BME280;11820;48.738;9.092;2023-05-23T11:31:55;96440.63;;;18.49;100.00
23303;BME280;11820;48.738;9.092;2023-05-23T11:34:21;96445.88;;;18.65;100.00
23303;BME280;11820;48.738;9.092;2023-05-23T11:36:46;96436.34;;;19.14;100.00
23303;BME280;11820;48.738;9.092;2023-05-23T11:39:12;96427.66;;;18.92;100.00
23303;BME280;11820;48.738;9.092;2023-05-23T11:41:38;96433.34;;;19.05;100.00
23303;BME280;11820;48.738;9.092;2023-05-23T11:44:10;96434.28;;;18.78;100.00
23303;BME280;11820;48.738;9.092;2023-05-23T11:46:36;96435.53;;;18.75;100.00
23303;BME280;11820;48.738;9.092;2023-05-23T11:49:01;96435.78;;;18.74;100.00
23303;BME280;11820;48.738;9.092;2023-05-23T11:51:27;96427.09;;;18.90;100.00
23303;BME280;11820;48.738;9.092;2023-05-23T11:53:52;96426.56;;;19.26;100.00
23303;BME280;11820;48.738;9.092;2023-05-23T11:56:18;96426.34;;;19.49;100.00
23303;BME280;11820;48.738;9.092;2023-05-23T11:58:43;96427.78;;;19.61;100.00
23303;BME280;11820;48.738;9.092;2023-05-23T12:01:10;96431.81;;;19.68;100.00
23303;BME280;11820;48.738;9.092;2023-05-23T12:03:49;96427.50;;;19.58;100.00
23303;BME280;11820;48.738;9.092;2023-05-23T12:06:17;96429.81;;;19.33;100.00
23303;BME280;11820;48.738;9.092;2023-05-23T12:08:42;96432.38;;;19.28;100.00
23303;BME280;11820;48.738;9.092;2023-05-23T12:11:08;96444.09;;;19.04;100.00
23303;BME280;11820;48.738;9.092;2023-05-23T12:13:33;96430.75;;;18.89;100.00
23303;BME280;11820;48.738;9.092;2023-05-23T12:16:00;96437.91;;;18.44;100.00
23303;BME280;11820;48.738;9.092;2023-05-23T12:18:30;96427.59;;;18.87;100.00
23303;BME280;11820;48.738;9.092;2023-05-23T12:21:03;96421.34;;;19.47;100.00
23303;BME280;11820;48.738;9.092;2023-05-23T12:23:30;96418.47;;;19.96;100.00
23303;BME280;11820;48.738;9.092;2023-05-23T12:25:56;96414.34;;;19.53;100.00
23303;BME280;11820;48.738;9.092;2023-05-23T12:28:34;96411.50;;;20.07;100.00
23303;BME280;11820;48.738;9.092;2023-05-23T12:31:08;96410.72;;;20.06;100.00
23303;BME280;11820;48.738;9.092;2023-05-23T12:33:37;96402.66;;;19.91;100.00
23303;BME280;11820;48.738;9.092;2023-05-23T12:36:03;96392.59;;;20.36;100.00
23303;BME280;11820;48.738;9.092;2023-05-23T12:38:28;96393.38;;;20.73;100.00
23303;BME280;11820;48.738;9.092;2023-05-23T12:41:15;96397.53;;;20.01;100.00
23303;BME280;11820;48.738;9.092;2023-05-23T12:43:54;96399.50;;;19.42;100.00
23303;BME280;11820;48.738;9.092;2023-05-23T12:46:24;96398.69;;;20.10;100.00
23303;BME280;11820;48.738;9.092;2023-05-23T12:48:50;96395.47;;;20.35;100.00
23303;BME280;11820;48.738;9.092;2023-05-23T12:51:16;96397.19;;;20.19;100.00
23303;BME280;11820;48.738;9.092;2023-05-23T12:53:42;96387.63;;;20.08;100.00
23303;BME280;11820;48.738;9.092;2023-05-23T12:56:07;96385.31;;;20.48;100.00
23303;BME280;11820;48.738;9.092;2023-05-23T12:58:33;96390.47;;;20.33;100.00
23303;BME280;11820;48.738;9.092;2023-05-23T13:01:00;96398.81;;;20.93;100.00
23303;BME280;11820;48.738;9.092;2023-05-23T13:03:25;96382.06;;;21.09;100.00
23303;BME280;11820;48.738;9.092;2023-05-23T13:05:51;96388.25;;;20.83;100.00
23303;BME280;11820;48.738;9.092;2023-05-23T13:08:17;96393.50;;;20.20;100.00
23303;BME280;11820;48.738;9.092;2023-05-23T13:10:44;96382.63;;;20.07;100.00